KADW/ADW METAR and TAF weather

Enter ICAO airport designator
Station Type Date Time Source
KADW METAR 2021/03/07 07:56 UTC NOAA

KADW 070756Z AUTO 34004KT 10SM CLR M05/M08 A3028 RMK AO2 SLP264 T10511085 $


Station Type Date Time Source
KADW Decoded METAR 2021/03/07 07:56 UTC NOAA

Camp Springs / Andrews Air Force Base, MD, United States (KADW) 38-49N 076-51W 88M
Mar 07, 2021 - 02:56 AM EST / 2021.03.07 0756 UTC
Wind: from the NNW (340 degrees) at 5 MPH (4 KT):0
Visibility: 10 mile(s):0
Sky conditions: clear
Temperature: 22.8 F (-5.1 C)
Windchill: 15 F (-9 C):1
Dew Point: 16.7 F (-8.5 C)
Relative Humidity: 76%
Pressure (altimeter): 30.28 in. Hg (1025 hPa)
ob: KADW 070756Z AUTO 34004KT 10SM CLR M05/M08 A3028 RMK AO2 SLP264 T10511085
cycle: 8

Station Type Date Time Source
KADW TAF 2021/03/07 01:24 UTC NOAA

TAF KADW 070100Z 0701/0807 32010KT 9999 SKC QNH3021INS
BECMG 0714/0715 32010G15KT 9999 FEW050 QNH3036INS
BECMG 0722/0723 34006KT 9999 SKC QNH3033INS TX07/0721Z TNM03/0710Z

Example: see airport list